Time;durP1;ratioP1;P1;durP2;ratioP2;P2;SDS_P1;SDS_P2;PMS_P1;PMS_P2;Temp;Humidity;BMP_temperature;BMP_pressure;BME280_temperature;BME280_humidity;BME280_pressure;Samples;Min_cycle;Max_cycle;Signal;HPM_P1;HPM_P2
2022/04/29 00:00:52;;;;;;;6.15;2.60;;;;;;;10.09;63.34;99668.41;4484618;31;20169;-72
2022/04/29 00:03:21;;;;;;;5.72;2.85;;;;;;;10.07;63.71;99665.87;4484331;31;20101;-72
2022/04/29 00:05:49;;;;;;;5.00;2.78;;;;;;;10.01;63.75;99661.09;4484601;31;20426;-73
2022/04/29 00:08:17;;;;;;;3.33;2.40;;;;;;;10.03;63.59;99659.19;4484495;32;20495;-72
2022/04/29 00:10:44;;;;;;;4.22;2.65;;;;;;;10.04;63.78;99666.13;4484250;31;20454;-72
2022/04/29 00:13:14;;;;;;;5.65;2.80;;;;;;;9.94;63.41;99659.88;4484291;32;20105;-73
2022/04/29 00:15:41;;;;;;;3.12;2.53;;;;;;;9.93;63.56;99663.41;4484640;31;20438;-72
2022/04/29 00:18:09;;;;;;;5.97;3.17;;;;;;;9.91;63.30;99662.72;4484461;32;20645;-73
2022/04/29 00:20:38;;;;;;;4.57;2.67;;;;;;;9.88;63.68;99663.75;4484483;31;20088;-72
2022/04/29 00:23:07;;;;;;;4.55;2.80;;;;;;;9.87;63.41;99658.63;4484159;32;20101;-72
2022/04/29 00:25:34;;;;;;;5.43;3.00;;;;;;;9.86;63.32;99663.03;4484529;32;20181;-73
2022/04/29 00:28:03;;;;;;;5.30;2.67;;;;;;;9.86;63.66;99665.66;4484124;31;20084;-73
2022/04/29 00:30:31;;;;;;;3.25;2.50;;;;;;;9.85;63.32;99661.34;4484337;32;20160;-72
2022/04/29 00:32:59;;;;;;;4.50;2.67;;;;;;;9.80;63.94;99660.03;4484108;31;20164;-73
2022/04/29 00:35:27;;;;;;;4.65;2.60;;;;;;;9.75;64.34;99649.91;4484098;31;20096;-73
2022/04/29 00:37:56;;;;;;;5.12;3.00;;;;;;;9.80;64.35;99660.03;4484090;31;20533;-73
2022/04/29 00:40:27;;;;;;;5.30;2.67;;;;;;;9.77;64.40;99654.06;4483894;31;20466;-73
2022/04/29 00:42:54;;;;;;;6.00;2.80;;;;;;;9.72;64.56;99657.94;4483898;31;20570;-73
2022/04/29 00:45:22;;;;;;;5.93;3.17;;;;;;;9.73;64.01;99657.00;4484046;31;20119;-73
2022/04/29 00:47:51;;;;;;;3.40;2.28;;;;;;;9.72;63.27;99656.19;4484023;31;20139;-73
2022/04/29 00:50:21;;;;;;;3.80;2.50;;;;;;;9.79;62.90;99660.97;4483988;31;20080;-73
2022/04/29 00:52:51;;;;;;;4.32;2.87;;;;;;;9.87;62.45;99664.72;4484067;31;20161;-73
2022/04/29 00:55:18;;;;;;;3.33;2.22;;;;;;;9.87;62.63;99656.00;4483725;32;20156;-72
2022/04/29 00:58:08;;;;;;;5.35;2.42;;;;;;;9.79;62.90;99650.50;4483495;32;20111;-72
2022/04/29 01:00:36;;;;;;;6.90;2.92;;;;;;;9.81;62.43;99654.69;4486557;32;20103;-73
2022/04/29 01:03:04;;;;;;;3.87;2.53;;;;;;;9.72;63.24;99660.56;4486332;31;20100;-73
2022/04/29 01:05:33;;;;;;;4.62;2.60;;;;;;;9.69;63.65;99660.78;4486216;31;20433;-73
2022/04/29 01:08:01;;;;;;;4.10;2.75;;;;;;;9.63;63.93;99662.06;4485938;31;20138;-73
2022/04/29 01:10:29;;;;;;;5.05;3.20;;;;;;;9.58;63.63;99659.78;4485600;31;20084;-72
2022/04/29 01:13:00;;;;;;;4.55;2.53;;;;;;;9.55;63.73;99659.16;4485768;32;20100;-73
2022/04/29 01:15:29;;;;;;;6.95;2.85;;;;;;;9.53;63.59;99661.06;4485952;31;20110;-73
2022/04/29 01:17:59;;;;;;;4.72;3.08;;;;;;;9.49;64.31;99656.97;4485982;31;20092;-72
2022/04/29 01:20:29;;;;;;;7.53;3.00;;;;;;;9.42;64.63;99659.19;4485993;31;20127;-73
2022/04/29 01:22:57;;;;;;;4.10;2.47;;;;;;;9.35;64.96;99650.94;4485848;31;20096;-73
2022/04/29 01:25:24;;;;;;;5.45;2.87;;;;;;;9.29;65.63;99646.12;4486231;31;20114;-73
2022/04/29 01:27:52;;;;;;;6.32;2.90;;;;;;;9.24;65.63;99649.06;4486116;31;20382;-73
2022/04/29 01:30:20;;;;;;;4.15;2.75;;;;;;;9.17;66.32;99647.00;4485950;31;20454;-73
2022/04/29 01:32:47;;;;;;;4.72;2.58;;;;;;;9.18;66.09;99646.06;4485794;32;20140;-73
2022/04/29 01:35:15;;;;;;;3.85;2.53;;;;;;;9.11;66.39;99640.41;4485948;31;20127;-73
2022/04/29 01:37:43;;;;;;;4.78;2.70;;;;;;;9.04;66.63;99640.00;4486100;31;20122;-73
2022/04/29 01:40:11;;;;;;;3.58;2.30;;;;;;;9.05;66.33;99639.06;4485429;31;20106;-72
2022/04/29 01:42:41;;;;;;;6.57;2.92;;;;;;;9.06;66.26;99637.28;4485808;31;20161;-72
2022/04/29 01:45:09;;;;;;;3.70;2.58;;;;;;;9.03;66.42;99638.31;4486029;31;20154;-72
2022/04/29 01:47:37;;;;;;;3.97;2.55;;;;;;;9.04;65.60;99634.78;4484796;32;20152;-73
2022/04/29 01:50:05;;;;;;;3.92;2.42;;;;;;;9.09;64.90;99638.84;4485660;31;20537;-73
2022/04/29 01:52:33;;;;;;;5.93;2.47;;;;;;;9.11;65.08;99634.34;4486006;31;20155;-72
2022/04/29 01:55:00;;;;;;;6.60;2.80;;;;;;;9.16;64.26;99640.94;4485854;32;20120;-72
2022/04/29 01:57:28;;;;;;;4.35;2.62;;;;;;;9.18;64.42;99633.81;4485975;31;20088;-73
2022/04/29 01:59:56;;;;;;;5.28;2.90;;;;;;;9.09;64.70;99631.84;4485742;32;20164;-73
2022/04/29 02:02:23;;;;;;;4.15;2.53;;;;;;;9.07;64.38;99638.97;4485764;31;20620;-72
2022/04/29 02:04:51;;;;;;;7.20;2.85;;;;;;;9.12;63.92;99633.41;4485629;31;20180;-72
2022/04/29 02:07:18;;;;;;;3.55;2.83;;;;;;;9.07;64.19;99633.72;4485740;31;20108;-72
2022/04/29 02:09:45;;;;;;;5.45;2.75;;;;;;;9.09;63.67;99636.25;4484212;31;20167;-73
2022/04/29 02:12:15;;;;;;;4.05;2.20;;;;;;;9.09;63.78;99633.63;4485573;31;20100;-73
2022/04/29 02:14:44;;;;;;;3.87;2.60;;;;;;;9.10;63.57;99641.34;4485713;31;20126;-73
2022/04/29 02:17:12;;;;;;;4.15;2.40;;;;;;;9.14;63.17;99640.19;4485891;31;20092;-73
2022/04/29 02:19:40;;;;;;;4.15;2.47;;;;;;;9.07;63.63;99633.72;4485582;32;20560;-72
2022/04/29 02:22:08;;;;;;;2.60;2.20;;;;;;;9.07;63.21;99631.12;4485450;31;20093;-72
2022/04/29 02:24:37;;;;;;;6.47;2.65;;;;;;;9.05;63.20;99633.84;4485661;31;20505;-72
2022/04/29 02:27:07;;;;;;;4.00;2.40;;;;;;;9.00;63.53;99632.47;4485722;31;20111;-73
2022/04/29 02:29:35;;;;;;;4.62;2.95;;;;;;;9.02;63.21;99636.66;4485637;31;20481;-72
2022/04/29 02:32:09;;;;;;;5.85;2.70;;;;;;;9.01;63.02;99640.22;4485606;31;20675;-73
2022/04/29 02:34:36;;;;;;;4.62;2.87;;;;;;;8.94;63.77;99636.34;4485582;31;20090;-73
2022/04/29 02:37:04;;;;;;;3.20;2.50;;;;;;;8.94;63.45;99638.94;4485079;31;20504;-73
2022/04/29 02:39:31;;;;;;;3.80;2.22;;;;;;;8.83;63.93;99642.31;4485615;31;20175;-72
2022/04/29 02:41:59;;;;;;;4.40;2.70;;;;;;;8.83;63.93;99641.47;4485497;31;20421;-72
2022/04/29 02:44:26;;;;;;;4.62;2.70;;;;;;;8.78;63.91;99643.53;4485384;31;20084;-73
2022/04/29 02:47:08;;;;;;;4.20;2.22;;;;;;;8.80;63.94;99636.47;4485526;31;20099;-73
2022/04/29 02:49:45;;;;;;;3.80;2.75;;;;;;;8.75;63.85;99633.31;4485084;31;20081;-72
2022/04/29 02:52:13;;;;;;;4.72;2.47;;;;;;;8.72;63.79;99639.59;4485430;31;20104;-73
2022/04/29 02:54:41;;;;;;;4.37;2.90;;;;;;;8.75;63.64;99634.16;4485212;31;20118;-73
2022/04/29 02:57:09;;;;;;;3.92;2.50;;;;;;;8.81;63.08;99632.88;4485276;31;20502;-72
2022/04/29 02:59:36;;;;;;;3.67;2.37;;;;;;;8.78;63.18;99636.56;4485287;31;20537;-73
2022/04/29 03:02:05;;;;;;;4.62;2.90;;;;;;;8.82;62.91;99632.78;4485434;31;20176;-73
2022/04/29 03:04:33;;;;;;;4.62;2.28;;;;;;;8.83;63.07;99641.47;4485356;31;20100;-73
2022/04/29 03:07:01;;;;;;;4.00;2.58;;;;;;;8.86;62.55;99634.25;4485349;31;20100;-73
2022/04/29 03:09:29;;;;;;;4.62;2.58;;;;;;;8.95;61.94;99640.63;4485166;32;20098;-73
2022/04/29 03:11:56;;;;;;;5.22;2.50;;;;;;;9.00;61.79;99645.53;4485216;31;20160;-73
2022/04/29 03:14:24;;;;;;;4.10;2.50;;;;;;;8.99;61.81;99639.50;4485293;31;20141;-73
2022/04/29 03:16:52;;;;;;;5.25;2.55;;;;;;;9.03;61.84;99642.72;4485325;31;20172;-73
2022/04/29 03:19:19;;;;;;;3.95;2.65;;;;;;;9.12;61.36;99646.47;4485079;31;20092;-72
2022/04/29 03:21:47;;;;;;;5.12;2.50;;;;;;;9.14;61.34;99647.19;4484572;31;20176;-72
2022/04/29 03:24:14;;;;;;;4.00;2.70;;;;;;;9.16;61.35;99650.53;4485627;31;20104;-73
2022/04/29 03:26:42;;;;;;;5.37;2.40;;;;;;;9.16;61.26;99646.16;4485325;32;20134;-72
2022/04/29 03:29:09;;;;;;;5.78;2.83;;;;;;;9.21;61.06;99646.66;4484000;32;20123;-73
2022/04/29 03:31:37;;;;;;;4.25;2.55;;;;;;;9.14;61.70;99634.13;4484872;31;20096;-73
2022/04/29 03:34:05;;;;;;;5.72;2.55;;;;;;;9.08;62.38;99645.00;4485119;32;20167;-73
2022/04/29 03:36:33;;;;;;;6.62;2.72;;;;;;;9.13;62.20;99642.91;4484813;31;20096;-73
2022/04/29 03:39:00;;;;;;;4.35;2.22;;;;;;;9.14;62.07;99637.56;4485058;31;20111;-72
2022/04/29 03:41:27;;;;;;;5.05;2.40;;;;;;;9.21;61.80;99646.66;4484634;31;20122;-72
2022/04/29 03:43:57;;;;;;;3.25;2.42;;;;;;;9.21;61.78;99640.63;4484815;31;20118;-72
2022/04/29 03:46:24;;;;;;;2.92;2.28;;;;;;;9.24;61.94;99640.41;4484845;31;20132;-73
2022/04/29 03:51:40;;;;;;;6.40;2.92;;;;;;;9.24;61.88;99645.63;4484903;31;20514;-73
2022/04/29 03:54:08;;;;;;;6.45;2.22;;;;;;;9.24;61.97;99648.25;4484957;31;20161;-73
2022/04/29 03:56:36;;;;;;;4.28;2.10;;;;;;;9.28;61.79;99654.06;4484646;31;20142;-73
2022/04/29 03:59:05;;;;;;;4.62;2.40;;;;;;;9.30;61.15;99653.03;4484791;31;20484;-72
2022/04/29 04:01:34;;;;;;;7.37;2.60;;;;;;;9.41;60.96;99658.34;4484556;32;20123;-73
2022/04/29 04:04:03;;;;;;;4.53;2.17;;;;;;;9.49;61.39;99657.81;4484789;32;20143;-73
2022/04/29 04:09:18;;;;;;;3.75;2.30;;;;;;;9.69;60.83;99659.03;4484347;32;20762;-73
2022/04/29 04:11:45;;;;;;;4.03;2.30;;;;;;;9.73;60.65;99657.84;4484013;31;20144;-73
2022/04/29 04:14:13;;;;;;;5.45;2.42;;;;;;;9.84;60.13;99653.62;4484495;31;20108;-73
2022/04/29 04:16:41;;;;;;;3.75;2.20;;;;;;;9.93;60.00;99650.34;4484236;31;20556;-73
2022/04/29 04:19:09;;;;;;;4.65;2.62;;;;;;;10.06;59.72;99652.91;4484425;31;20149;-73
2022/04/29 04:21:36;;;;;;;4.97;2.37;;;;;;;10.21;58.59;99650.97;4484347;32;20450;-72
2022/04/29 04:24:05;;;;;;;3.97;2.60;;;;;;;10.33;59.00;99659.69;4484472;31;20100;-73
2022/04/29 04:26:32;;;;;;;5.00;2.60;;;;;;;10.44;57.68;99665.81;4484324;32;20095;-73
2022/04/29 04:28:59;;;;;;;3.67;2.33;;;;;;;10.64;57.72;99658.25;4482953;32;20109;-72
2022/04/29 04:31:28;;;;;;;5.12;2.70;;;;;;;10.79;56.53;99666.75;4484279;31;20124;-72
2022/04/29 04:33:55;;;;;;;4.53;2.78;;;;;;;10.93;55.57;99665.69;4485737;31;20096;-72
2022/04/29 04:36:29;;;;;;;4.53;2.53;;;;;;;11.06;56.09;99666.44;4486430;32;20093;-73
2022/04/29 04:38:56;;;;;;;4.55;2.10;;;;;;;11.17;55.32;99673.47;4486049;31;20080;-73
2022/04/29 04:41:23;;;;;;;4.68;2.60;;;;;;;11.24;55.51;99671.22;4486295;31;20449;-72
2022/04/29 04:43:51;;;;;;;4.18;2.40;;;;;;;11.38;55.14;99676.22;4480634;31;20092;-73
2022/04/29 04:46:18;;;;;;;3.53;2.87;;;;;;;11.54;54.56;99679.31;4485873;31;20079;-73
2022/04/29 04:48:47;;;;;;;3.62;2.40;;;;;;;11.58;53.79;99674.63;4485739;31;20126;-73
2022/04/29 04:51:16;;;;;;;4.70;2.80;;;;;;;11.73;53.66;99680.47;4485931;31;20097;-73
2022/04/29 04:53:44;;;;;;;4.37;2.58;;;;;;;11.83;53.39;99677.97;4486327;31;20101;-72
2022/04/29 04:56:11;;;;;;;4.07;2.50;;;;;;;12.04;53.42;99675.44;4486328;31;20119;-73
2022/04/29 04:58:39;;;;;;;3.80;2.05;;;;;;;12.21;52.85;99681.94;4485932;31;20099;-72
2022/04/29 05:01:06;;;;;;;9.65;2.80;;;;;;;12.20;51.24;99689.00;4480859;31;20103;-73
2022/04/29 05:03:36;;;;;;;5.43;2.55;;;;;;;12.29;51.36;99682.13;4480915;32;20096;-72
2022/04/29 05:06:04;;;;;;;5.05;2.40;;;;;;;12.25;51.06;99684.19;4483023;32;20148;-72
2022/04/29 05:08:31;;;;;;;5.25;2.53;;;;;;;12.31;50.69;99682.00;4482922;31;20450;-73
2022/04/29 05:10:59;;;;;;;5.05;2.65;;;;;;;12.51;51.24;99683.84;4483106;31;20092;-73
2022/04/29 05:13:27;;;;;;;4.18;2.40;;;;;;;12.60;49.92;99688.31;4483756;32;20501;-73
2022/04/29 05:15:54;;;;;;;4.18;2.47;;;;;;;12.63;50.27;99691.66;4479562;31;20171;-73
2022/04/29 05:18:21;;;;;;;6.00;2.78;;;;;;;12.59;49.10;99694.53;4491217;31;20441;-73
2022/04/29 05:20:49;;;;;;;6.18;2.55;;;;;;;12.59;50.35;99688.47;4486168;31;20428;-72
2022/04/29 05:23:18;;;;;;;4.10;2.47;;;;;;;12.68;50.28;99692.12;4485076;32;20515;-72
2022/04/29 05:25:48;;;;;;;3.70;2.58;;;;;;;12.80;50.33;99692.91;4478197;31;20146;-72
2022/04/29 05:28:19;;;;;;;5.75;2.50;;;;;;;12.67;49.41;99693.06;4485075;31;20153;-72
2022/04/29 05:30:50;;;;;;;4.68;2.70;;;;;;;12.76;50.84;99693.16;4485181;32;20126;-72
2022/04/29 05:33:18;;;;;;;4.10;2.58;;;;;;;12.85;49.54;99696.78;4485513;31;20112;-72
2022/04/29 05:35:50;;;;;;;3.65;2.33;;;;;;;12.91;48.99;99700.69;4485882;31;20080;-72
2022/04/29 05:38:20;;;;;;;3.85;2.50;;;;;;;12.70;49.16;99700.69;4484772;32;20121;-72
2022/04/29 05:43:33;;;;;;;4.30;2.70;;;;;;;12.93;50.35;99694.38;4481005;32;20180;-72
2022/04/29 05:46:00;;;;;;;4.93;2.60;;;;;;;12.92;49.14;99697.94;4483749;32;20092;-72
2022/04/29 05:48:28;;;;;;;5.25;3.00;;;;;;;12.97;49.43;99689.66;4485370;32;20092;-72
2022/04/29 05:50:55;;;;;;;5.37;2.65;;;;;;;12.98;49.09;99685.25;4484550;31;20105;-71
2022/04/29 05:53:23;;;;;;;4.00;2.60;;;;;;;13.07;49.37;99689.72;4485326;31;20104;-71
2022/04/29 05:55:53;;;;;;;6.50;2.47;;;;;;;13.16;49.61;99696.00;4485551;31;20088;-74
2022/04/29 05:58:21;;;;;;;5.90;2.95;;;;;;;13.31;49.18;99697.34;4493413;31;20080;-73
2022/04/29 06:00:49;;;;;;;3.90;2.90;;;;;;;13.41;47.86;99702.66;4476166;31;20093;-73
2022/04/29 06:03:18;;;;;;;7.35;2.72;;;;;;;13.45;48.13;99704.06;4483643;31;20106;-73
2022/04/29 06:05:46;;;;;;;5.18;2.67;;;;;;;13.50;48.48;99707.12;4478877;31;20093;-73
2022/04/29 06:08:13;;;;;;;4.15;2.50;;;;;;;13.65;49.20;99711.06;4469455;32;20127;-72
2022/04/29 06:10:41;;;;;;;4.97;2.92;;;;;;;13.72;49.57;99713.19;4476370;31;20096;-72
2022/04/29 06:13:09;;;;;;;4.90;2.70;;;;;;;13.58;48.63;99715.22;4478137;31;20100;-72
2022/04/29 06:15:37;;;;;;;5.70;2.60;;;;;;;13.68;49.61;99715.22;4479081;31;20467;-72
2022/04/29 06:18:06;;;;;;;6.55;3.10;;;;;;;13.82;46.84;99714.00;4480971;32;20145;-72
2022/04/29 06:20:34;;;;;;;5.32;2.75;;;;;;;13.83;47.74;99713.88;4484133;31;20112;-72
2022/04/29 06:23:03;;;;;;;6.28;3.15;;;;;;;13.94;47.40;99717.38;4485391;31;20533;-72
2022/04/29 06:25:31;;;;;;;3.50;2.62;;;;;;;13.86;48.13;99723.31;4479313;31;20113;-72
2022/04/29 06:27:59;;;;;;;4.40;2.30;;;;;;;14.00;46.20;99722.94;4475881;31;20153;-72
2022/04/29 06:30:26;;;;;;;3.40;2.45;;;;;;;14.02;46.67;99723.62;4478385;32;20105;-72
2022/04/29 06:33:14;;;;;;;3.10;2.62;;;;;;;14.18;47.94;99724.91;4479373;32;20112;-72
2022/04/29 06:35:42;;;;;;;5.97;2.95;;;;;;;14.20;48.00;99728.22;4483751;31;20481;-73
2022/04/29 06:38:11;;;;;;;4.60;2.67;;;;;;;14.07;47.56;99717.97;4472820;31;20120;-72
2022/04/29 06:40:43;;;;;;;3.85;2.40;;;;;;;14.24;48.23;99720.91;4481360;31;20162;-72
2022/04/29 06:43:10;;;;;;;3.53;2.53;;;;;;;14.30;46.62;99725.63;4482766;32;20114;-73
2022/04/29 06:45:55;;;;;;;3.45;2.58;;;;;;;14.35;47.08;99731.28;4477709;32;20130;-73
2022/04/29 06:48:24;;;;;;;5.30;2.60;;;;;;;14.48;47.33;99718.69;4473140;32;20128;-74
2022/04/29 06:50:54;;;;;;;3.15;2.33;;;;;;;14.67;46.96;99717.88;4477665;32;20348;-73
2022/04/29 06:53:25;;;;;;;3.95;2.40;;;;;;;14.83;44.98;99721.75;4475549;32;20127;-73
2022/04/29 06:55:53;;;;;;;7.95;3.08;;;;;;;14.83;45.21;99716.47;4466800;32;20123;-72
2022/04/29 06:58:21;;;;;;;4.28;2.70;;;;;;;15.00;44.64;99717.53;4483376;31;20122;-72
2022/04/29 07:00:48;;;;;;;8.45;4.00;;;;;;;15.15;43.67;99720.56;4478160;32;20123;-72
2022/04/29 07:03:15;;;;;;;3.40;2.20;;;;;;;14.95;46.47;99711.87;4478802;31;20153;-72
2022/04/29 07:05:43;;;;;;;5.20;2.92;;;;;;;14.99;43.25;99714.09;4476198;32;20096;-71
2022/04/29 07:08:12;;;;;;;3.53;2.22;;;;;;;15.04;42.90;99709.19;4477139;32;20143;-72
2022/04/29 07:10:42;;;;;;;6.57;2.15;;;;;;;15.23;44.16;99716.25;4482159;32;20119;-73
2022/04/29 07:13:10;;;;;;;6.37;3.30;;;;;;;15.49;43.19;99714.75;4470354;32;21066;-73
2022/04/29 07:15:43;;;;;;;5.10;2.70;;;;;;;15.55;44.60;99715.00;4481092;32;20108;-74
2022/04/29 07:18:12;;;;;;;3.55;2.50;;;;;;;15.64;44.60;99710.69;4483102;31;20076;-74
2022/04/29 07:20:39;;;;;;;6.70;2.47;;;;;;;15.67;46.17;99707.72;4484896;31;20104;-73
2022/04/29 07:23:06;;;;;;;8.00;3.67;;;;;;;15.73;42.62;99723.00;4468540;31;20096;-74
2022/04/29 07:25:34;;;;;;;4.07;2.25;;;;;;;15.87;40.19;99720.88;4473900;31;20092;-73
2022/04/29 07:28:01;;;;;;;4.90;3.30;;;;;;;15.96;39.09;99714.69;4483108;31;20092;-73
2022/04/29 07:30:29;;;;;;;4.50;2.50;;;;;;;15.88;38.76;99719.87;4474000;32;20137;-75
2022/04/29 07:32:57;;;;;;;5.07;2.53;;;;;;;15.92;39.39;99713.31;4480708;32;20100;-74
2022/04/29 07:43:55;;;;;;;3.03;1.98;;;;;;;16.02;39.29;99708.81;4450307;32;20127;-73
2022/04/29 07:46:22;;;;;;;7.45;2.12;;;;;;;16.22;37.79;99713.97;4449539;32;20119;-73
2022/04/29 07:48:50;;;;;;;3.08;2.05;;;;;;;16.05;36.71;99705.88;4448757;32;20234;-73
2022/04/29 07:51:18;;;;;;;2.75;2.20;;;;;;;16.17;38.75;99711.78;4459274;32;20162;-74
2022/04/29 07:53:45;;;;;;;3.25;1.90;;;;;;;15.98;37.73;99720.66;4454132;32;20124;-74
2022/04/29 07:56:12;;;;;;;18.98;2.62;;;;;;;16.05;37.72;99718.25;4456589;32;20148;-75
2022/04/29 07:58:40;;;;;;;10.23;2.53;;;;;;;16.35;40.33;99713.59;4448409;32;20160;-73
2022/04/29 08:01:09;;;;;;;6.57;2.87;;;;;;;16.40;38.24;99701.56;4452816;32;20123;-75
2022/04/29 08:03:39;;;;;;;6.32;3.25;;;;;;;16.30;35.49;99716.69;4437443;32;20112;-72
2022/04/29 08:06:07;;;;;;;3.72;2.20;;;;;;;15.93;36.33;99720.28;4450270;32;20303;-72
2022/04/29 08:08:35;;;;;;;3.37;2.20;;;;;;;15.96;34.85;99714.69;4448437;32;20202;-71
2022/04/29 08:11:02;;;;;;;6.25;2.50;;;;;;;16.12;35.82;99708.75;4447644;32;20165;-71
2022/04/29 08:13:33;;;;;;;4.32;2.42;;;;;;;16.46;37.50;99714.19;4455968;32;20117;-72
2022/04/29 08:16:23;;;;;;;2.50;2.15;;;;;;;16.28;36.95;99708.09;4484917;31;20169;-72
2022/04/29 08:18:52;;;;;;;4.90;2.03;;;;;;;16.33;34.70;99713.75;4485373;32;20471;-71
2022/04/29 08:21:20;;;;;;;5.05;2.75;;;;;;;16.28;35.98;99702.78;4481212;31;20096;-71
2022/04/29 08:23:48;;;;;;;6.70;2.60;;;;;;;16.59;36.26;99705.03;4469976;32;20088;-71
2022/04/29 08:26:16;;;;;;;5.05;2.45;;;;;;;16.68;36.76;99704.13;4490668;31;20104;-72
2022/04/29 08:28:43;;;;;;;3.58;2.03;;;;;;;16.76;35.13;99709.47;4472148;32;20172;-71
2022/04/29 08:31:11;;;;;;;4.25;2.40;;;;;;;16.81;36.51;99711.66;4480358;32;20100;-71
2022/04/29 08:33:39;;;;;;;4.87;2.40;;;;;;;17.03;37.38;99694.47;4480118;32;20758;-72
2022/04/29 08:36:07;;;;;;;3.42;2.15;;;;;;;16.99;34.51;99690.50;4479229;31;20138;-72
2022/04/29 08:38:35;;;;;;;5.37;3.60;;;;;;;16.73;34.17;99693.06;4481011;32;20660;-71
2022/04/29 08:41:03;;;;;;;4.65;2.90;;;;;;;16.46;34.20;99695.69;4484951;31;20138;-72
2022/04/29 08:43:32;;;;;;;3.17;2.20;;;;;;;16.72;34.63;99694.91;4482707;31;20559;-71
2022/04/29 08:46:00;;;;;;;4.72;2.55;;;;;;;16.56;33.65;99687.66;4469888;32;20542;-72
2022/04/29 08:48:31;;;;;;;5.10;2.70;;;;;;;16.65;34.24;99683.25;4470068;32;20134;-72
2022/04/29 08:50:59;;;;;;;4.30;2.65;;;;;;;16.95;35.52;99683.84;4484602;32;20112;-71
2022/04/29 08:53:26;;;;;;;5.93;2.47;;;;;;;16.98;33.39;99689.63;4481942;32;20131;-71
2022/04/29 08:58:40;;;;;;;5.57;2.60;;;;;;;17.11;34.86;99689.22;4479659;32;20130;-72
2022/04/29 09:01:13;;;;;;;3.78;2.37;;;;;;;16.90;35.00;99680.84;4478100;32;20104;-70
2022/04/29 09:03:43;;;;;;;5.78;2.70;;;;;;;17.32;34.91;99675.59;4477931;32;20092;-72
2022/04/29 09:06:11;;;;;;;3.97;2.65;;;;;;;17.55;34.23;99677.69;4479616;31;20142;-72
2022/04/29 09:08:46;;;;;;;4.55;2.67;;;;;;;17.66;33.90;99673.91;4480163;31;20096;-71
2022/04/29 09:11:24;;;;;;;5.00;3.10;;;;;;;17.60;33.70;99672.72;4473142;31;20108;-72
2022/04/29 09:13:52;;;;;;;3.95;2.55;;;;;;;17.53;33.79;99671.69;4477373;32;20126;-72
2022/04/29 09:16:20;;;;;;;3.35;2.45;;;;;;;17.52;34.38;99665.59;4477781;32;20564;-72
2022/04/29 09:18:54;;;;;;;4.40;2.58;;;;;;;17.55;32.66;99659.97;4481479;31;20115;-70
2022/04/29 09:21:26;;;;;;;4.22;2.75;;;;;;;17.78;32.78;99659.38;4484270;31;20172;-72
2022/04/29 09:23:56;;;;;;;3.37;2.12;;;;;;;17.91;33.67;99656.28;4483149;31;20095;-72
2022/04/29 09:26:27;;;;;;;3.72;2.17;;;;;;;17.87;31.61;99670.84;4480472;31;20461;-71
2022/04/29 09:29:10;;;;;;;3.55;2.20;;;;;;;17.20;32.43;99664.47;4474779;32;20151;-72
2022/04/29 09:31:54;;;;;;;4.18;2.30;;;;;;;16.99;31.56;99661.38;4483682;32;20101;-72
2022/04/29 09:34:43;;;;;;;3.40;2.60;;;;;;;16.84;33.00;99661.06;4483560;31;20076;-72
2022/04/29 09:37:16;;;;;;;3.87;2.60;;;;;;;16.96;32.63;99659.03;4480544;31;20097;-71
2022/04/29 09:40:02;;;;;;;4.40;2.05;;;;;;;16.93;32.10;99665.47;4480132;32;20553;-72
2022/04/29 09:42:37;;;;;;;2.85;2.30;;;;;;;17.14;30.92;99673.03;4476682;32;20127;-72
2022/04/29 09:45:15;;;;;;;3.25;2.30;;;;;;;17.25;31.50;99665.81;4474840;32;20156;-72
2022/04/29 09:47:42;;;;;;;2.95;1.98;;;;;;;17.11;31.48;99656.63;4468559;32;20139;-72
2022/04/29 09:50:10;;;;;;;2.85;2.28;;;;;;;16.85;31.84;99657.41;4474329;32;20084;-72
2022/04/29 09:52:43;;;;;;;3.60;2.55;;;;;;;16.77;32.95;99652.91;4470607;32;20104;-72
2022/04/29 09:55:18;;;;;;;9.48;2.80;;;;;;;16.79;33.24;99658.03;4475239;31;20116;-72
2022/04/29 09:57:56;;;;;;;3.65;2.10;;;;;;;16.77;32.83;99649.44;4472691;32;20492;-72
2022/04/29 10:00:24;;;;;;;4.85;2.28;;;;;;;17.17;32.21;99662.12;4477019;31;20473;-72
2022/04/29 10:02:52;;;;;;;5.55;2.75;;;;;;;17.14;32.45;99654.50;4482876;31;20181;-75
2022/04/29 10:05:22;;;;;;;3.55;2.40;;;;;;;17.03;32.02;99654.75;4482633;31;20446;-73
2022/04/29 10:07:52;;;;;;;3.90;2.35;;;;;;;17.20;31.63;99653.03;4484109;32;20089;-73
2022/04/29 10:10:20;;;;;;;5.30;2.55;;;;;;;17.10;31.46;99650.50;4478626;32;20115;-74
2022/04/29 10:12:49;;;;;;;4.93;2.60;;;;;;;16.90;31.20;99646.44;4465992;32;20105;-74
2022/04/29 10:15:20;;;;;;;3.92;2.50;;;;;;;17.17;31.67;99650.72;4472533;32;20093;-74
2022/04/29 10:23:29;;;;;;;2.72;2.10;;;;;;;17.80;28.95;99646.78;4470344;32;20164;-75
2022/04/29 10:25:57;;;;;;;3.95;2.35;;;;;;;17.66;30.91;99650.06;4475595;32;20130;-75
2022/04/29 10:28:24;;;;;;;2.20;1.90;;;;;;;17.96;30.14;99630.13;4478524;31;20091;-75
2022/04/29 10:30:59;;;;;;;4.05;2.00;;;;;;;18.29;29.13;99634.59;4479335;31;20150;-76
2022/04/29 10:33:27;;;;;;;5.80;2.45;;;;;;;18.70;29.41;99623.94;4482026;31;20123;-72
2022/04/29 10:35:59;;;;;;;4.03;2.58;;;;;;;19.22;28.90;99623.50;4478050;31;20095;-73
2022/04/29 10:38:31;;;;;;;10.02;2.33;;;;;;;19.17;27.88;99627.69;4476330;31;20508;-72
2022/04/29 10:41:13;;;;;;;4.43;2.53;;;;;;;19.41;28.32;99624.09;4478253;31;20088;-72
2022/04/29 10:43:49;;;;;;;4.50;2.17;;;;;;;19.67;30.95;99621.97;4481473;31;20125;-73
2022/04/29 10:46:21;;;;;;;5.00;2.80;;;;;;;19.97;30.46;99631.94;4479171;31;20548;-73
2022/04/29 10:48:53;;;;;;;4.22;2.78;;;;;;;19.36;33.08;99627.28;4478004;31;20113;-73
2022/04/29 10:51:25;;;;;;;;;;;;;;;18.77;34.17;99617.81;4476029;32;20091;-72
2022/04/29 10:53:57;;;;;;;4.53;2.90;;;;;;;18.37;33.49;99616.06;4482119;32;19984;-72
2022/04/29 10:56:26;;;;;;;3.17;2.15;;;;;;;18.21;35.39;99608.91;4485344;31;20123;-73
2022/04/29 10:59:04;;;;;;;4.25;2.53;;;;;;;18.08;34.13;99617.38;4481542;31;20476;-75
2022/04/29 11:01:35;;;;;;;4.40;2.35;;;;;;;18.42;33.40;99616.38;4479246;32;20111;-73
2022/04/29 11:04:15;;;;;;;3.65;2.50;;;;;;;18.78;33.09;99608.84;4487147;31;20096;-74
2022/04/29 11:06:45;;;;;;;4.10;2.65;;;;;;;19.27;31.29;99607.91;4479143;31;20096;-73
2022/04/29 11:09:34;;;;;;;4.35;3.10;;;;;;;19.22;33.49;99591.63;4479554;31;20444;-75
2022/04/29 11:12:03;;;;;;;5.28;2.83;;;;;;;18.71;32.76;99594.63;4483792;31;20358;-74
2022/04/29 11:15:04;;;;;;;3.15;2.55;;;;;;;18.65;32.91;99602.41;4480805;31;20100;-73
2022/04/29 11:17:36;;;;;;;5.65;2.53;;;;;;;18.76;32.35;99594.09;4475461;31;20156;-74
2022/04/29 11:20:14;;;;;;;3.60;2.50;;;;;;;19.22;33.58;99582.84;4477666;31;20137;-75
2022/04/29 11:25:47;;;;;;;6.55;2.62;;;;;;;18.93;30.68;99584.28;4481226;31;20089;-74
2022/04/29 11:28:16;;;;;;;3.40;2.30;;;;;;;19.41;31.37;99590.41;4473938;32;20108;-74
2022/04/29 11:30:49;;;;;;;3.95;2.80;;;;;;;20.02;32.28;99584.38;4479653;32;20156;-74
2022/04/29 11:33:23;;;;;;;4.28;2.72;;;;;;;19.88;29.60;99577.16;4482433;31;20084;-73
2022/04/29 11:36:02;;;;;;;8.63;2.95;;;;;;;19.59;31.18;99581.31;4476319;31;20154;-74
2022/04/29 11:38:31;;;;;;;2.97;2.25;;;;;;;19.65;30.94;99569.97;4468639;32;20133;-74
2022/04/29 11:41:00;;;;;;;6.55;2.65;;;;;;;19.64;31.70;99569.16;4467605;32;20092;-74
2022/04/29 11:43:27;;;;;;;5.00;3.53;;;;;;;19.66;33.28;99577.78;4467546;32;20466;-73
2022/04/29 11:46:05;;;;;;;6.03;3.35;;;;;;;19.18;32.32;99574.37;4469076;32;20143;-73
2022/04/29 11:48:34;;;;;;;4.60;3.40;;;;;;;19.21;33.01;99575.88;4482781;31;20108;-74
2022/04/29 11:51:04;;;;;;;6.12;3.78;;;;;;;18.80;33.56;99569.69;4484069;31;20100;-73
2022/04/29 11:53:32;;;;;;;5.15;2.72;;;;;;;19.04;33.71;99564.50;4484770;31;20092;-73
2022/04/29 11:55:59;;;;;;;5.57;3.17;;;;;;;19.18;34.57;99558.44;4490878;31;20104;-73
2022/04/29 11:58:30;;;;;;;3.70;3.08;;;;;;;19.06;34.29;99549.22;4483520;32;20171;-73
2022/04/29 12:00:57;;;;;;;4.10;2.87;;;;;;;18.84;33.73;99551.59;4472186;31;20154;-73
2022/04/29 12:03:25;;;;;;;4.30;2.75;;;;;;;18.70;33.52;99544.31;4470800;32;20104;-72
2022/04/29 12:05:53;;;;;;;3.50;2.72;;;;;;;19.25;34.37;99540.00;4474408;31;20647;-72
2022/04/29 12:08:21;;;;;;;5.03;2.90;;;;;;;19.12;32.56;99533.41;4477236;31;20130;-72
2022/04/29 12:10:48;;;;;;;5.32;2.92;;;;;;;18.91;32.37;99544.63;4468273;32;20473;-72
2022/04/29 12:13:18;;;;;;;7.43;3.03;;;;;;;19.20;32.20;99527.25;4473233;31;20199;-73
2022/04/29 12:15:46;;;;;;;3.10;2.80;;;;;;;19.82;32.27;99525.53;4482959;31;20432;-73